Time;durP1;ratioP1;P1;durP2;ratioP2;P2;SDS_P1;SDS_P2;PMS_P1;PMS_P2;Temp;Humidity;BMP_temperature;BMP_pressure;BME280_temperature;BME280_humidity;BME280_pressure;Samples;Min_cycle;Max_cycle;Signal;HPM_P1;HPM_P2
2024/01/09 00:01:05;;;;;;;0.38;0.38;;;-0.50;99.90;;;;;;4966183;28;20138;-70
2024/01/09 00:03:30;;;;;;;0.20;0.20;;;-0.50;99.90;;;;;;4963057;28;20035;-70
2024/01/09 00:05:56;;;;;;;0.30;0.30;;;-0.50;99.90;;;;;;4961750;28;20059;-70
2024/01/09 00:08:21;;;;;;;0.20;0.20;;;-0.60;99.90;;;;;;4967287;28;20042;-70
2024/01/09 00:10:47;;;;;;;2.92;1.85;;;-0.70;99.90;;;;;;4967194;28;20255;-70
2024/01/09 00:13:12;;;;;;;0.20;0.20;;;-0.60;99.90;;;;;;4962975;28;20475;-70
2024/01/09 00:15:38;;;;;;;0.10;0.10;;;-0.60;99.90;;;;;;4960442;28;20054;-70
2024/01/09 00:18:04;;;;;;;0.20;0.20;;;-0.60;99.90;;;;;;4962527;28;20043;-70
2024/01/09 00:20:29;;;;;;;0.20;0.20;;;-0.70;99.90;;;;;;4960611;28;20070;-70
2024/01/09 00:22:55;;;;;;;0.30;0.30;;;-0.60;99.90;;;;;;4965252;28;20404;-70
2024/01/09 00:25:20;;;;;;;0.10;0.10;;;-0.60;99.90;;;;;;4989160;28;20553;-70
2024/01/09 00:27:46;;;;;;;0.17;0.17;;;-0.70;99.90;;;;;;4963123;28;20075;-70
2024/01/09 00:30:13;;;;;;;0.20;0.20;;;-0.70;99.90;;;;;;4995520;28;20054;-70
2024/01/09 00:32:38;;;;;;;1.35;0.95;;;-0.70;99.90;;;;;;4962010;28;20050;-70
2024/01/09 00:35:07;;;;;;;2.63;2.50;;;-0.70;99.90;;;;;;4969275;28;20050;-70
2024/01/09 00:37:33;;;;;;;0.15;0.15;;;-0.70;99.90;;;;;;4962206;28;20058;-70
2024/01/09 00:39:58;;;;;;;0.20;0.20;;;-0.70;99.90;;;;;;4968237;28;20115;-70
2024/01/09 00:42:24;;;;;;;0.20;0.20;;;-0.70;99.90;;;;;;4964615;28;20057;-70
2024/01/09 00:44:49;;;;;;;0.35;0.35;;;-0.80;99.90;;;;;;4962341;28;20058;-70
2024/01/09 00:47:15;;;;;;;0.20;0.20;;;-0.80;99.90;;;;;;4967471;28;20050;-70
2024/01/09 00:49:44;;;;;;;0.20;0.20;;;-0.80;99.90;;;;;;4958783;28;20043;-70
2024/01/09 00:52:09;;;;;;;0.20;0.20;;;-0.80;99.90;;;;;;4964851;28;20573;-70
2024/01/09 00:54:35;;;;;;;0.20;0.20;;;-0.80;99.90;;;;;;4959109;28;20158;-70
2024/01/09 00:57:00;;;;;;;0.20;0.20;;;-0.80;99.90;;;;;;4965432;28;20506;-70
2024/01/09 00:59:26;;;;;;;0.20;0.20;;;-0.90;99.90;;;;;;4954035;28;20097;-70
2024/01/09 01:01:52;;;;;;;0.20;0.20;;;-0.80;99.90;;;;;;4970364;28;20138;-70
2024/01/09 01:04:18;;;;;;;0.20;0.20;;;-0.80;99.90;;;;;;4962806;28;20035;-70
2024/01/09 01:06:45;;;;;;;0.20;0.20;;;-0.90;99.90;;;;;;4965324;28;20105;-70
2024/01/09 01:09:11;;;;;;;0.15;0.15;;;-0.90;99.90;;;;;;4958034;28;20082;-70
2024/01/09 01:11:37;;;;;;;0.40;0.40;;;-0.90;99.90;;;;;;4954770;28;20506;-70
2024/01/09 01:14:03;;;;;;;0.20;0.20;;;-0.90;99.90;;;;;;4959771;28;20127;-70
2024/01/09 01:16:29;;;;;;;0.20;0.20;;;-0.90;99.90;;;;;;4963535;28;20141;-70
2024/01/09 01:18:55;;;;;;;0.30;0.30;;;-0.90;99.90;;;;;;4968969;28;20108;-70
2024/01/09 01:21:21;;;;;;;0.20;0.20;;;-0.90;99.90;;;;;;4959383;28;20499;-70
2024/01/09 01:23:47;;;;;;;2.80;1.85;;;-0.90;99.90;;;;;;4960831;28;20507;-69
2024/01/09 01:26:13;;;;;;;0.20;0.20;;;-0.90;99.90;;;;;;4965835;28;20081;-70
2024/01/09 01:28:38;;;;;;;0.95;0.95;;;-0.90;99.90;;;;;;4958221;28;20039;-70
2024/01/09 01:31:04;;;;;;;0.20;0.20;;;-0.90;99.90;;;;;;4999317;28;20081;-70
2024/01/09 01:33:29;;;;;;;0.20;0.20;;;-1.00;99.90;;;;;;4968551;28;20050;-70
2024/01/09 01:35:55;;;;;;;0.28;0.28;;;-1.00;99.90;;;;;;4962155;28;20066;-70
2024/01/09 01:38:21;;;;;;;0.10;0.10;;;-1.00;99.90;;;;;;4968213;28;20507;-70
2024/01/09 01:40:47;;;;;;;0.20;0.20;;;-1.00;99.90;;;;;;4962387;28;20490;-69
2024/01/09 01:43:12;;;;;;;3.65;1.38;;;-1.00;99.90;;;;;;4998605;28;20053;-69
2024/01/09 01:45:38;;;;;;;0.17;0.17;;;-1.00;99.90;;;;;;4957657;28;20059;-70
2024/01/09 01:48:04;;;;;;;0.20;0.20;;;-1.00;99.90;;;;;;4972436;28;20065;-69
2024/01/09 01:50:31;;;;;;;0.20;0.20;;;-1.00;99.90;;;;;;4960753;28;20128;-69
2024/01/09 01:52:59;;;;;;;0.20;0.20;;;-1.10;99.90;;;;;;4958554;28;20101;-69
2024/01/09 01:55:25;;;;;;;1.20;1.17;;;-1.10;99.90;;;;;;4957674;28;20047;-69
2024/01/09 01:57:54;;;;;;;0.20;0.20;;;-1.10;99.90;;;;;;4989054;28;20051;-69
2024/01/09 02:00:21;;;;;;;0.30;0.30;;;-1.10;99.90;;;;;;4965752;28;20488;-70
2024/01/09 02:02:48;;;;;;;2.92;1.17;;;-1.10;99.90;;;;;;4968306;28;20043;-69
2024/01/09 02:05:16;;;;;;;0.20;0.20;;;-1.10;99.90;;;;;;4964618;28;20089;-69
2024/01/09 02:07:47;;;;;;;1.63;1.17;;;-1.10;99.90;;;;;;4965234;28;20507;-70
2024/01/09 02:10:14;;;;;;;0.57;0.57;;;-1.10;99.90;;;;;;4961135;28;20050;-69
2024/01/09 02:12:39;;;;;;;0.20;0.20;;;-1.10;99.90;;;;;;4964016;28;20043;-69
2024/01/09 02:15:05;;;;;;;0.20;0.20;;;-1.10;99.90;;;;;;4967941;28;20070;-69
2024/01/09 02:17:31;;;;;;;0.20;0.20;;;-1.10;99.90;;;;;;4958179;28;20094;-69
2024/01/09 02:19:59;;;;;;;0.20;0.20;;;-1.10;99.90;;;;;;4961780;28;20051;-69
2024/01/09 02:22:24;;;;;;;0.30;0.30;;;-1.10;99.90;;;;;;4971875;28;20051;-70
2024/01/09 02:24:50;;;;;;;0.52;0.52;;;-1.10;99.90;;;;;;4965520;28;20054;-69
2024/01/09 02:27:31;;;;;;;0.20;0.20;;;-1.20;99.90;;;;;;4963957;28;20051;-69
2024/01/09 02:29:57;;;;;;;0.20;0.20;;;-1.20;99.90;;;;;;4960968;28;20526;-69
2024/01/09 02:32:24;;;;;;;0.10;0.10;;;-1.20;99.90;;;;;;4959760;28;20066;-69
2024/01/09 02:34:52;;;;;;;0.20;0.20;;;-1.10;99.90;;;;;;4965734;28;20109;-69
2024/01/09 02:37:17;;;;;;;0.13;0.13;;;-1.20;99.90;;;;;;4972149;28;20047;-69
2024/01/09 02:39:43;;;;;;;0.10;0.10;;;-1.20;99.90;;;;;;4960826;28;20584;-69
2024/01/09 02:42:08;;;;;;;0.20;0.20;;;-1.20;99.90;;;;;;4971269;28;20062;-69
2024/01/09 02:44:34;;;;;;;0.13;0.13;;;-1.20;99.90;;;;;;4969804;28;20581;-70
2024/01/09 02:47:00;;;;;;;0.20;0.20;;;-1.20;99.90;;;;;;4964584;28;20043;-69
2024/01/09 02:49:25;;;;;;;0.20;0.20;;;-1.20;99.90;;;;;;4966704;28;20118;-69
2024/01/09 02:51:51;;;;;;;0.38;0.38;;;-1.20;99.90;;;;;;4967572;28;20398;-69
2024/01/09 02:54:17;;;;;;;0.20;0.20;;;-1.30;99.90;;;;;;4961368;28;20440;-69
2024/01/09 02:56:43;;;;;;;0.60;0.60;;;-1.20;99.90;;;;;;4964171;28;20081;-69
2024/01/09 02:59:09;;;;;;;0.20;0.20;;;-1.30;99.90;;;;;;4968419;28;20064;-69
2024/01/09 03:01:34;;;;;;;0.20;0.20;;;-1.30;99.90;;;;;;4959670;28;20085;-69
2024/01/09 03:04:00;;;;;;;0.20;0.20;;;-1.30;99.90;;;;;;4969342;28;20043;-69
2024/01/09 03:06:25;;;;;;;0.20;0.20;;;-1.30;99.90;;;;;;4966246;28;20130;-69
2024/01/09 03:08:51;;;;;;;0.10;0.10;;;-1.30;99.90;;;;;;4966085;28;20054;-69
2024/01/09 03:11:17;;;;;;;0.20;0.20;;;-1.30;99.90;;;;;;4960916;28;20049;-69
2024/01/09 03:13:42;;;;;;;0.88;0.88;;;-1.30;99.90;;;;;;4967084;28;20051;-69
2024/01/09 03:16:12;;;;;;;0.20;0.20;;;-1.30;99.90;;;;;;4966523;28;20093;-69
2024/01/09 03:18:39;;;;;;;0.35;0.32;;;-1.30;99.90;;;;;;4961677;28;20051;-69
2024/01/09 03:21:04;;;;;;;0.10;0.10;;;-1.40;99.90;;;;;;4967875;28;20043;-69
2024/01/09 03:23:32;;;;;;;0.28;0.28;;;-1.30;99.90;;;;;;4961305;28;20042;-69
2024/01/09 03:25:58;;;;;;;0.10;0.10;;;-1.40;99.90;;;;;;4969875;28;20161;-69
2024/01/09 03:28:25;;;;;;;0.17;0.17;;;-1.30;99.90;;;;;;5001846;28;20053;-69
2024/01/09 03:30:50;;;;;;;0.20;0.20;;;-1.40;99.90;;;;;;4964047;28;20446;-69
2024/01/09 03:33:16;;;;;;;0.40;0.40;;;-1.40;99.90;;;;;;4954960;28;20047;-69
2024/01/09 03:35:42;;;;;;;0.20;0.20;;;-1.40;99.90;;;;;;4967418;28;20126;-69
2024/01/09 03:38:07;;;;;;;0.75;0.75;;;-1.30;99.90;;;;;;4974433;28;20039;-69
2024/01/09 03:40:33;;;;;;;0.10;0.10;;;-1.40;99.90;;;;;;4993863;28;20057;-68
2024/01/09 03:42:59;;;;;;;0.10;0.10;;;-1.40;99.90;;;;;;4969265;28;20054;-69
2024/01/09 03:45:24;;;;;;;0.30;0.30;;;-1.40;99.90;;;;;;4964812;28;20054;-68
2024/01/09 03:47:50;;;;;;;0.65;0.65;;;-1.40;99.90;;;;;;4994151;28;20482;-69
2024/01/09 03:50:15;;;;;;;0.20;0.20;;;-1.40;99.90;;;;;;4957364;28;20054;-68
2024/01/09 03:52:41;;;;;;;0.20;0.20;;;-1.50;99.90;;;;;;4963526;28;20645;-68
2024/01/09 03:55:07;;;;;;;0.20;0.20;;;-1.40;99.90;;;;;;4962898;28;20105;-68
2024/01/09 03:57:33;;;;;;;2.70;0.85;;;-1.50;99.90;;;;;;4965417;28;20404;-68
2024/01/09 03:59:58;;;;;;;0.20;0.20;;;-1.50;99.90;;;;;;4968716;28;20082;-68
2024/01/09 04:02:24;;;;;;;0.30;0.30;;;-1.50;99.90;;;;;;4967586;28;20506;-68
2024/01/09 04:04:50;;;;;;;0.20;0.20;;;-1.60;99.90;;;;;;4967983;28;20133;-68
2024/01/09 04:07:15;;;;;;;0.20;0.20;;;-1.50;99.90;;;;;;4970330;28;20047;-69
2024/01/09 04:09:41;;;;;;;0.20;0.20;;;-1.50;99.90;;;;;;4963554;28;20458;-68
2024/01/09 04:12:06;;;;;;;0.73;0.55;;;-1.50;99.90;;;;;;4967426;28;20042;-68
2024/01/09 04:14:32;;;;;;;0.15;0.15;;;-1.50;99.90;;;;;;4965920;28;20148;-68
2024/01/09 04:16:57;;;;;;;0.20;0.20;;;-1.50;99.90;;;;;;4964724;28;20486;-68
2024/01/09 04:19:23;;;;;;;0.20;0.20;;;-1.60;99.90;;;;;;4958607;28;20392;-68
2024/01/09 04:21:48;;;;;;;0.25;0.25;;;-1.50;99.90;;;;;;4966962;28;20109;-68
2024/01/09 04:24:14;;;;;;;0.22;0.22;;;-1.60;99.90;;;;;;4963246;28;20082;-68
2024/01/09 04:26:40;;;;;;;0.20;0.20;;;-1.50;99.90;;;;;;4949199;28;20047;-68
2024/01/09 04:29:05;;;;;;;0.20;0.20;;;-1.50;99.90;;;;;;4957178;28;20047;-68
2024/01/09 04:31:31;;;;;;;0.17;0.17;;;-1.60;99.90;;;;;;4966373;28;20125;-68
2024/01/09 04:33:56;;;;;;;0.20;0.20;;;-1.60;99.90;;;;;;4966021;28;20454;-68
2024/01/09 04:36:22;;;;;;;0.30;0.30;;;-1.60;99.90;;;;;;4959402;28;20039;-68
2024/01/09 04:38:48;;;;;;;0.20;0.20;;;-1.50;99.90;;;;;;4968963;28;20043;-68
2024/01/09 04:41:17;;;;;;;0.20;0.20;;;-1.60;99.90;;;;;;4963920;28;20043;-68
2024/01/09 04:43:46;;;;;;;0.20;0.20;;;-1.60;99.90;;;;;;4987894;28;20652;-67
2024/01/09 04:46:12;;;;;;;0.22;0.22;;;-1.60;99.90;;;;;;4960712;28;20102;-67
2024/01/09 04:48:38;;;;;;;1.30;0.73;;;-1.50;99.90;;;;;;4953978;28;20044;-67
2024/01/09 04:51:04;;;;;;;0.30;0.30;;;-1.70;99.90;;;;;;4968568;28;20399;-67
2024/01/09 04:53:29;;;;;;;0.30;0.30;;;-1.60;99.90;;;;;;4967213;28;20125;-67
2024/01/09 04:55:55;;;;;;;0.20;0.20;;;-1.70;99.90;;;;;;4957200;28;20077;-67
2024/01/09 04:58:20;;;;;;;1.25;1.20;;;-1.60;99.90;;;;;;4966449;28;20066;-66
2024/01/09 05:00:47;;;;;;;0.20;0.20;;;-1.60;99.90;;;;;;4967728;28;20058;-66
2024/01/09 05:03:13;;;;;;;0.20;0.20;;;-1.60;99.90;;;;;;4999884;28;20039;-67
2024/01/09 05:05:39;;;;;;;0.20;0.20;;;-1.50;99.90;;;;;;4956813;28;21423;-66
2024/01/09 05:08:04;;;;;;;0.50;0.50;;;-1.60;99.90;;;;;;4967468;28;20085;-67
2024/01/09 05:10:31;;;;;;;0.20;0.20;;;-1.60;99.90;;;;;;4967233;28;20051;-66
2024/01/09 05:12:57;;;;;;;0.20;0.20;;;-1.60;99.90;;;;;;4969745;28;20065;-66
2024/01/09 05:15:23;;;;;;;0.20;0.20;;;-1.60;99.90;;;;;;4961560;28;20043;-66
2024/01/09 05:17:49;;;;;;;0.20;0.20;;;-1.70;99.90;;;;;;4970388;28;20373;-67
2024/01/09 05:20:14;;;;;;;5.10;1.67;;;-1.70;99.90;;;;;;4973016;28;20399;-67
2024/01/09 05:22:40;;;;;;;0.13;0.13;;;-1.70;99.90;;;;;;4966469;28;20058;-67
2024/01/09 05:25:08;;;;;;;0.20;0.20;;;-1.60;99.90;;;;;;4964634;28;20058;-66
2024/01/09 05:27:33;;;;;;;0.47;0.47;;;-1.70;99.90;;;;;;4971495;28;20532;-67
2024/01/09 05:29:59;;;;;;;0.20;0.20;;;-1.60;99.90;;;;;;4965066;28;20142;-67
2024/01/09 05:32:25;;;;;;;0.20;0.20;;;-1.70;99.90;;;;;;4963476;28;20104;-66
2024/01/09 05:34:51;;;;;;;0.10;0.10;;;-1.70;99.90;;;;;;4963327;28;20454;-67
2024/01/09 05:37:16;;;;;;;0.20;0.20;;;-1.70;99.90;;;;;;4972019;28;20034;-67
2024/01/09 05:39:45;;;;;;;0.20;0.20;;;-1.70;99.90;;;;;;4971389;28;20043;-66
2024/01/09 05:42:11;;;;;;;0.20;0.20;;;-1.70;99.90;;;;;;4993954;28;20046;-66
2024/01/09 05:44:37;;;;;;;0.20;0.20;;;-1.70;99.90;;;;;;4996752;28;20186;-67
2024/01/09 05:47:03;;;;;;;0.28;0.28;;;-1.80;99.90;;;;;;4968731;28;20177;-66
2024/01/09 05:49:28;;;;;;;0.30;0.30;;;-1.80;99.90;;;;;;4962870;28;20050;-67
2024/01/09 05:51:54;;;;;;;0.95;0.95;;;-1.70;99.90;;;;;;4964662;28;20053;-67
2024/01/09 05:54:20;;;;;;;0.20;0.20;;;-1.70;99.90;;;;;;4963153;28;20039;-67
2024/01/09 05:56:45;;;;;;;0.20;0.20;;;-1.80;99.90;;;;;;4967305;28;20046;-66
2024/01/09 05:59:11;;;;;;;3.30;1.50;;;-1.80;99.90;;;;;;4954429;28;20095;-66
2024/01/09 06:01:37;;;;;;;0.20;0.20;;;-1.80;99.90;;;;;;4995364;28;20129;-67
2024/01/09 06:04:02;;;;;;;0.20;0.20;;;-1.80;99.90;;;;;;4963871;28;20047;-66
2024/01/09 06:06:28;;;;;;;0.30;0.30;;;-1.80;99.90;;;;;;4973920;28;20770;-66
2024/01/09 06:08:54;;;;;;;0.20;0.20;;;-1.90;99.90;;;;;;4989561;28;20050;-67
2024/01/09 06:11:20;;;;;;;0.20;0.20;;;-1.80;99.90;;;;;;4961228;28;20376;-66
2024/01/09 06:13:45;;;;;;;0.20;0.20;;;-1.90;99.90;;;;;;4968927;28;20483;-67
2024/01/09 06:16:11;;;;;;;0.20;0.20;;;-1.80;99.90;;;;;;4965523;28;21980;-67
2024/01/09 06:18:36;;;;;;;1.42;1.33;;;-1.90;99.90;;;;;;5002948;28;20038;-67
2024/01/09 06:21:02;;;;;;;1.50;1.40;;;-1.90;99.90;;;;;;4965572;28;20150;-66
2024/01/09 06:23:27;;;;;;;0.20;0.20;;;-2.00;99.90;;;;;;4958369;28;20050;-67
2024/01/09 06:25:53;;;;;;;0.40;0.40;;;-2.00;99.90;;;;;;4965446;28;20073;-66
2024/01/09 06:28:20;;;;;;;0.20;0.20;;;-2.00;99.90;;;;;;4967961;28;20102;-67
2024/01/09 06:30:46;;;;;;;0.30;0.30;;;-2.00;99.90;;;;;;4958183;28;20419;-67
2024/01/09 06:33:11;;;;;;;0.30;0.30;;;-2.00;99.90;;;;;;4965431;28;20047;-67
2024/01/09 06:35:37;;;;;;;0.20;0.20;;;-2.00;99.90;;;;;;4969914;28;20053;-67
2024/01/09 06:38:03;;;;;;;0.20;0.20;;;-1.90;99.90;;;;;;4965245;28;20092;-66
2024/01/09 06:40:29;;;;;;;0.20;0.20;;;-2.10;99.90;;;;;;4961689;28;20035;-66
2024/01/09 06:42:54;;;;;;;0.20;0.20;;;-2.10;99.90;;;;;;4964264;28;20047;-66
2024/01/09 06:45:20;;;;;;;0.20;0.20;;;-2.10;99.90;;;;;;4962051;28;20125;-66
2024/01/09 06:47:45;;;;;;;0.22;0.22;;;-2.00;99.90;;;;;;5001454;28;20062;-66
2024/01/09 06:50:11;;;;;;;0.35;0.35;;;-2.00;99.90;;;;;;4968652;28;20735;-67
2024/01/09 06:52:38;;;;;;;1.05;1.05;;;-2.00;99.90;;;;;;4972764;28;20050;-66
2024/01/09 06:55:04;;;;;;;0.50;0.50;;;-2.10;99.90;;;;;;4972871;28;20122;-66
2024/01/09 06:57:29;;;;;;;11.60;2.50;;;-2.00;99.90;;;;;;4967983;28;20058;-67
2024/01/09 06:59:55;;;;;;;0.25;0.25;;;-2.10;99.90;;;;;;4960494;28;20081;-66
2024/01/09 07:02:21;;;;;;;0.20;0.20;;;-2.10;99.90;;;;;;4968301;28;20106;-66
2024/01/09 07:04:47;;;;;;;0.28;0.28;;;-2.10;99.90;;;;;;4968848;28;20506;-66
2024/01/09 07:07:12;;;;;;;0.20;0.20;;;-2.20;99.90;;;;;;4972235;28;20030;-66
2024/01/09 07:09:39;;;;;;;0.20;0.20;;;-2.20;99.90;;;;;;4963896;28;20051;-66
2024/01/09 07:12:05;;;;;;;0.20;0.20;;;-2.20;99.90;;;;;;4998425;28;20082;-66
2024/01/09 07:14:31;;;;;;;0.20;0.20;;;-2.20;99.90;;;;;;4963307;28;20039;-66
2024/01/09 07:16:57;;;;;;;0.30;0.30;;;-2.20;99.90;;;;;;4967044;28;20047;-67
2024/01/09 07:19:23;;;;;;;0.30;0.30;;;-2.30;99.90;;;;;;4963462;28;20047;-66
2024/01/09 07:21:49;;;;;;;0.50;0.50;;;-2.20;99.90;;;;;;4970886;28;20057;-66
2024/01/09 07:24:14;;;;;;;0.20;0.20;;;-2.20;99.90;;;;;;4966693;28;20047;-66
2024/01/09 07:26:41;;;;;;;0.28;0.28;;;-2.20;99.90;;;;;;4963144;28;20121;-67
2024/01/09 07:29:07;;;;;;;0.20;0.20;;;-2.30;99.90;;;;;;4962929;28;20534;-66
2024/01/09 07:31:32;;;;;;;0.20;0.20;;;-2.20;99.90;;;;;;4968334;28;20051;-66
2024/01/09 07:33:58;;;;;;;0.10;0.10;;;-2.20;99.90;;;;;;4966131;28;20534;-66
2024/01/09 07:36:24;;;;;;;0.20;0.20;;;-2.30;99.90;;;;;;4969997;28;20042;-66
2024/01/09 07:38:49;;;;;;;0.20;0.20;;;-2.30;99.90;;;;;;4963024;28;20668;-66
2024/01/09 07:41:17;;;;;;;0.30;0.30;;;-2.30;99.90;;;;;;4967184;28;20384;-66
2024/01/09 07:43:43;;;;;;;0.40;0.40;;;-2.30;99.90;;;;;;4987952;28;20126;-66
2024/01/09 07:46:10;;;;;;;0.17;0.17;;;-2.30;99.90;;;;;;4962930;28;20529;-66
2024/01/09 07:48:36;;;;;;;0.30;0.30;;;-2.30;99.90;;;;;;4955725;28;20062;-66
2024/01/09 07:51:02;;;;;;;0.22;0.22;;;-2.30;99.90;;;;;;4965663;28;20050;-67
2024/01/09 07:53:28;;;;;;;0.28;0.28;;;-2.40;99.90;;;;;;4963204;28;20498;-67
2024/01/09 07:55:54;;;;;;;0.63;0.63;;;-2.10;99.90;;;;;;4958626;28;20061;-67
2024/01/09 07:58:19;;;;;;;0.25;0.25;;;-2.30;99.90;;;;;;4966797;28;20045;-67
2024/01/09 08:00:45;;;;;;;0.20;0.20;;;-2.30;99.90;;;;;;4957511;28;20422;-67
2024/01/09 08:03:13;;;;;;;0.20;0.20;;;-2.30;99.90;;;;;;4966014;28;20038;-66
2024/01/09 08:05:39;;;;;;;0.55;0.55;;;-2.30;99.90;;;;;;4965117;28;20072;-67
2024/01/09 08:08:06;;;;;;;0.20;0.20;;;-2.30;99.90;;;;;;4958895;28;20432;-66
2024/01/09 08:10:31;;;;;;;0.82;0.82;;;-2.30;99.90;;;;;;4953686;28;20510;-67
2024/01/09 08:12:58;;;;;;;0.10;0.10;;;-2.30;99.90;;;;;;4991020;28;20121;-67
2024/01/09 08:15:24;;;;;;;0.20;0.20;;;-2.30;99.90;;;;;;4957552;28;20055;-67
2024/01/09 08:17:50;;;;;;;2.05;1.35;;;-2.30;99.90;;;;;;4961586;28;20403;-67
2024/01/09 08:20:15;;;;;;;0.20;0.20;;;-2.30;99.90;;;;;;4998573;28;20050;-67
2024/01/09 08:22:41;;;;;;;0.75;0.75;;;-2.30;99.90;;;;;;4960874;28;20086;-66
2024/01/09 08:25:07;;;;;;;0.20;0.20;;;-2.30;99.90;;;;;;4957120;28;20054;-67
2024/01/09 08:27:32;;;;;;;0.20;0.20;;;-2.30;99.90;;;;;;4964302;28;20057;-66
2024/01/09 08:29:58;;;;;;;0.52;0.52;;;-2.20;99.90;;;;;;5000989;28;20047;-67
2024/01/09 08:32:25;;;;;;;0.20;0.20;;;-2.30;99.90;;;;;;4957383;28;20034;-67
2024/01/09 08:34:50;;;;;;;0.20;0.20;;;-2.30;99.90;;;;;;4966474;28;20038;-66
2024/01/09 08:37:16;;;;;;;0.20;0.20;;;-2.30;99.90;;;;;;4969295;28;20052;-67
2024/01/09 08:39:41;;;;;;;0.20;0.20;;;-2.30;99.90;;;;;;4966758;28;20054;-66
2024/01/09 08:42:07;;;;;;;1.00;0.95;;;-2.20;99.90;;;;;;4955988;28;20392;-66
2024/01/09 08:44:35;;;;;;;0.20;0.20;;;-2.20;99.90;;;;;;4963722;28;20050;-66
2024/01/09 08:47:01;;;;;;;0.73;0.73;;;-2.30;99.90;;;;;;4967446;28;20557;-66
2024/01/09 08:49:27;;;;;;;0.68;0.68;;;-2.20;99.90;;;;;;4957555;28;20039;-67
2024/01/09 08:51:53;;;;;;;0.20;0.20;;;-2.20;99.90;;;;;;4967340;28;20050;-67
2024/01/09 08:54:20;;;;;;;0.40;0.40;;;-2.20;99.90;;;;;;4967708;28;20114;-67
2024/01/09 08:56:46;;;;;;;0.20;0.20;;;-2.20;99.90;;;;;;4967573;28;20058;-67
2024/01/09 08:59:11;;;;;;;0.30;0.30;;;-2.20;99.90;;;;;;4967567;28;20051;-66
2024/01/09 09:01:37;;;;;;;0.20;0.20;;;-2.10;99.90;;;;;;4967489;28;20078;-66
2024/01/09 09:04:03;;;;;;;0.32;0.32;;;-2.10;99.90;;;;;;4963960;28;20137;-66
2024/01/09 09:06:28;;;;;;;0.20;0.20;;;-2.20;99.90;;;;;;4965656;28;20071;-67
2024/01/09 09:08:54;;;;;;;0.20;0.20;;;-2.10;99.90;;;;;;4967354;28;20097;-67
2024/01/09 09:11:20;;;;;;;0.20;0.20;;;-2.00;99.90;;;;;;4965945;28;20066;-67
2024/01/09 09:13:46;;;;;;;0.82;0.82;;;-2.00;99.90;;;;;;4965747;28;20059;-67
2024/01/09 09:16:14;;;;;;;0.20;0.20;;;-2.00;99.90;;;;;;4966664;28;20070;-67
2024/01/09 09:18:39;;;;;;;0.20;0.20;;;-2.00;99.90;;;;;;4963179;28;20055;-67
2024/01/09 09:21:05;;;;;;;0.20;0.20;;;-2.00;99.90;;;;;;4992179;28;20043;-67
2024/01/09 09:23:31;;;;;;;0.10;0.10;;;-1.90;99.90;;;;;;4965792;28;20039;-67
2024/01/09 09:25:57;;;;;;;1.10;1.10;;;-1.90;99.90;;;;;;4965019;28;20509;-68
2024/01/09 09:28:23;;;;;;;0.30;0.30;;;-1.90;99.90;;;;;;4961862;28;20046;-67
2024/01/09 09:30:48;;;;;;;0.20;0.20;;;-1.90;99.90;;;;;;4994643;28;20058;-67
2024/01/09 09:33:14;;;;;;;0.20;0.20;;;-1.90;99.90;;;;;;4968154;28;20031;-67
2024/01/09 09:35:39;;;;;;;0.20;0.20;;;-1.80;99.90;;;;;;4960968;28;20058;-68
2024/01/09 09:38:05;;;;;;;1.67;1.58;;;-1.80;99.90;;;;;;4971129;28;20038;-67
2024/01/09 09:40:31;;;;;;;0.50;0.50;;;-1.70;99.90;;;;;;4958957;28;20075;-67
2024/01/09 09:42:58;;;;;;;1.10;1.10;;;-1.70;99.90;;;;;;4960515;28;20066;-67
2024/01/09 09:45:27;;;;;;;0.35;0.35;;;-1.70;99.90;;;;;;4966058;28;20526;-68
2024/01/09 09:47:55;;;;;;;0.20;0.20;;;-1.70;99.90;;;;;;4964622;28;20134;-67
2024/01/09 09:50:21;;;;;;;0.20;0.20;;;-1.70;99.90;;;;;;4960166;28;20051;-67
2024/01/09 09:52:47;;;;;;;0.20;0.20;;;-1.60;99.90;;;;;;4972136;28;20380;-67
2024/01/09 09:55:13;;;;;;;1.35;1.25;;;-1.60;99.90;;;;;;4960148;28;20057;-67
2024/01/09 09:57:39;;;;;;;0.20;0.20;;;-1.60;99.90;;;;;;4965865;28;20049;-67
2024/01/09 10:00:09;;;;;;;0.20;0.20;;;-1.60;99.90;;;;;;4967578;28;20043;-67
2024/01/09 10:02:41;;;;;;;0.20;0.20;;;-1.60;99.90;;;;;;4960072;28;20079;-67
2024/01/09 10:05:14;;;;;;;0.50;0.50;;;-1.60;99.90;;;;;;4970854;28;20042;-67
2024/01/09 10:07:44;;;;;;;0.20;0.20;;;-1.60;99.90;;;;;;4972762;28;20053;-67
2024/01/09 10:10:12;;;;;;;0.20;0.20;;;-1.50;99.90;;;;;;4962028;28;20059;-67
2024/01/09 10:12:39;;;;;;;0.20;0.20;;;-1.40;99.90;;;;;;4967808;28;20521;-67
2024/01/09 10:15:09;;;;;;;0.20;0.20;;;-1.40;99.90;;;;;;4973062;28;20450;-66
2024/01/09 10:17:36;;;;;;;0.28;0.28;;;-1.40;99.90;;;;;;4963057;28;20054;-67
2024/01/09 10:20:10;;;;;;;0.20;0.20;;;-1.30;99.90;;;;;;4969432;28;20050;-67
2024/01/09 10:22:38;;;;;;;0.20;0.20;;;-1.20;99.90;;;;;;4971261;28;20507;-67
2024/01/09 10:25:05;;;;;;;0.30;0.30;;;-1.20;99.90;;;;;;4958582;28;20054;-67
2024/01/09 10:27:33;;;;;;;0.28;0.28;;;-1.10;99.90;;;;;;4968250;28;20051;-67
2024/01/09 10:29:59;;;;;;;0.30;0.30;;;-1.00;99.90;;;;;;4964879;28;20039;-67
2024/01/09 10:32:25;;;;;;;0.20;0.20;;;-0.90;99.90;;;;;;4962401;28;20035;-67
2024/01/09 10:34:50;;;;;;;1.23;1.15;;;-0.80;99.90;;;;;;4963241;28;20040;-67
2024/01/09 10:37:17;;;;;;;0.63;0.52;;;-0.70;99.90;;;;;;4969911;28;20057;-67
2024/01/09 10:39:47;;;;;;;0.20;0.20;;;-0.60;99.90;;;;;;4962647;28;20047;-67
2024/01/09 10:42:13;;;;;;;0.15;0.15;;;-0.60;99.90;;;;;;4959203;28;20042;-67
2024/01/09 10:44:42;;;;;;;0.50;0.50;;;-0.60;99.90;;;;;;4965275;28;20062;-67
2024/01/09 10:47:09;;;;;;;0.20;0.20;;;-0.50;99.90;;;;;;4970782;28;20372;-67
2024/01/09 10:49:39;;;;;;;0.20;0.20;;;-0.50;99.90;;;;;;4963670;28;20451;-67
2024/01/09 10:52:06;;;;;;;0.30;0.30;;;-0.40;99.90;;;;;;4961408;28;20046;-67
2024/01/09 10:54:33;;;;;;;0.10;0.10;;;-0.40;99.90;;;;;;4959355;28;20097;-67
2024/01/09 10:57:02;;;;;;;0.70;0.70;;;-0.30;99.90;;;;;;4965706;28;20043;-67
2024/01/09 10:59:30;;;;;;;0.20;0.20;;;-0.30;99.90;;;;;;4970957;28;20049;-67
2024/01/09 11:01:56;;;;;;;0.20;0.20;;;-0.20;99.90;;;;;;4967541;28;20399;-67
2024/01/09 11:04:21;;;;;;;1.20;0.70;;;-0.10;99.90;;;;;;4964482;28;20043;-67
2024/01/09 11:06:49;;;;;;;0.15;0.15;;;0.00;99.90;;;;;;4969387;28;20402;-67
2024/01/09 11:09:18;;;;;;;0.20;0.20;;;0.00;99.90;;;;;;4971863;28;20049;-67
2024/01/09 11:11:45;;;;;;;0.55;0.47;;;0.00;99.90;;;;;;4965272;28;20062;-67
2024/01/09 11:14:13;;;;;;;0.10;0.10;;;0.10;99.90;;;;;;4963982;28;20131;-67
2024/01/09 11:16:42;;;;;;;0.20;0.20;;;0.10;99.90;;;;;;4969430;28;20051;-67
2024/01/09 11:19:11;;;;;;;0.28;0.28;;;0.10;99.90;;;;;;4968513;28;20038;-67
2024/01/09 11:21:37;;;;;;;0.57;0.57;;;0.10;99.90;;;;;;4966945;28;20109;-67
2024/01/09 11:24:03;;;;;;;0.10;0.10;;;0.00;99.90;;;;;;4962270;28;20042;-67
2024/01/09 11:26:32;;;;;;;0.28;0.28;;;0.00;99.90;;;;;;4968989;28;20050;-67
2024/01/09 11:28:59;;;;;;;0.20;0.20;;;0.00;99.90;;;;;;4963624;28;20046;-67
2024/01/09 11:31:27;;;;;;;0.20;0.20;;;0.10;99.90;;;;;;4969156;28;20042;-67
2024/01/09 11:33:55;;;;;;;0.93;0.63;;;0.20;99.90;;;;;;4962238;28;20051;-67
2024/01/09 11:36:27;;;;;;;0.10;0.10;;;0.20;99.90;;;;;;4995916;28;20777;-67
2024/01/09 11:38:53;;;;;;;0.20;0.20;;;0.20;99.90;;;;;;4969787;28;20043;-68
2024/01/09 11:41:21;;;;;;;0.30;0.30;;;0.30;99.90;;;;;;4969926;28;20038;-67
2024/01/09 11:44:07;;;;;;;0.10;0.10;;;0.30;99.90;;;;;;4962852;28;20049;-67
2024/01/09 11:46:34;;;;;;;0.20;0.20;;;0.40;99.90;;;;;;4963941;28;20133;-67
2024/01/09 11:49:00;;;;;;;0.10;0.10;;;0.50;99.90;;;;;;4972611;28;20105;-68
2024/01/09 11:51:28;;;;;;;0.20;0.20;;;0.70;99.90;;;;;;4962269;28;20046;-68
2024/01/09 11:53:55;;;;;;;0.85;0.85;;;0.90;99.90;;;;;;4960894;28;20391;-68
2024/01/09 11:56:22;;;;;;;0.10;0.10;;;1.10;99.90;;;;;;4954511;28;20138;-68
2024/01/09 11:58:50;;;;;;;0.10;0.10;;;1.10;99.90;;;;;;4958872;28;20043;-68
2024/01/09 12:01:15;;;;;;;0.15;0.15;;;1.20;99.90;;;;;;4970413;28;20570;-68
2024/01/09 12:03:41;;;;;;;1.70;1.60;;;1.50;99.90;;;;;;4970837;28;20042;-68
2024/01/09 12:06:06;;;;;;;0.20;0.20;;;1.70;99.90;;;;;;4959291;28;20043;-68
2024/01/09 12:08:33;;;;;;;0.30;0.30;;;1.70;99.90;;;;;;4967166;28;20489;-69
2024/01/09 12:10:59;;;;;;;0.28;0.28;;;1.80;99.90;;;;;;4959840;28;20051;-68
2024/01/09 12:13:26;;;;;;;0.20;0.20;;;1.90;99.90;;;;;;4967055;28;20047;-68
2024/01/09 12:15:51;;;;;;;3.50;1.27;;;2.10;99.90;;;;;;4987861;28;20043;-69
2024/01/09 12:18:17;;;;;;;0.10;0.10;;;2.10;99.90;;;;;;4958112;28;20105;-69
2024/01/09 12:20:42;;;;;;;0.10;0.10;;;2.30;99.90;;;;;;4957903;28;20044;-69
2024/01/09 12:23:08;;;;;;;0.10;0.10;;;2.40;99.90;;;;;;4994365;28;20039;-69
2024/01/09 12:25:35;;;;;;;0.80;0.80;;;2.50;99.90;;;;;;4956930;28;20046;-69
2024/01/09 12:28:02;;;;;;;0.20;0.20;;;2.60;99.90;;;;;;4954283;28;20109;-69
2024/01/09 12:30:28;;;;;;;0.10;0.10;;;2.70;99.90;;;;;;4958699;28;20150;-69
2024/01/09 12:32:54;;;;;;;0.30;0.30;;;2.70;99.90;;;;;;4960619;28;20404;-69
2024/01/09 12:35:21;;;;;;;0.20;0.20;;;2.80;99.90;;;;;;5001706;28;20086;-69
2024/01/09 12:37:47;;;;;;;0.10;0.10;;;2.80;99.90;;;;;;4971128;28;20050;-69
2024/01/09 12:40:16;;;;;;;0.57;0.57;;;2.70;99.90;;;;;;4961447;28;20043;-69
2024/01/09 12:42:42;;;;;;;0.20;0.20;;;2.80;99.90;;;;;;4965597;28;20042;-69